sensor_id;sensor_type;location;lat;lon;timestamp;P1;durP1;ratioP1;P2;durP2;ratioP2
20525;SDS011;10421;49.142;9.232;2023-07-20T00:01:39;5.90;;;2.23;;
20525;SDS011;10421;49.142;9.232;2023-07-20T00:04:09;9.50;;;2.93;;
20525;SDS011;10421;49.142;9.232;2023-07-20T00:06:36;5.40;;;1.93;;
20525;SDS011;10421;49.142;9.232;2023-07-20T00:09:05;6.33;;;1.97;;
20525;SDS011;10421;49.142;9.232;2023-07-20T00:11:35;15.75;;;3.25;;
20525;SDS011;10421;49.142;9.232;2023-07-20T00:14:03;5.80;;;2.30;;
20525;SDS011;10421;49.142;9.232;2023-07-20T00:16:30;3.43;;;1.73;;
20525;SDS011;10421;49.142;9.232;2023-07-20T00:18:57;6.30;;;2.47;;
20525;SDS011;10421;49.142;9.232;2023-07-20T00:21:24;2.43;;;1.83;;
20525;SDS011;10421;49.142;9.232;2023-07-20T00:23:51;4.17;;;1.87;;
20525;SDS011;10421;49.142;9.232;2023-07-20T00:26:18;4.77;;;2.00;;
20525;SDS011;10421;49.142;9.232;2023-07-20T00:28:45;4.30;;;2.33;;
20525;SDS011;10421;49.142;9.232;2023-07-20T00:31:13;5.33;;;1.90;;
20525;SDS011;10421;49.142;9.232;2023-07-20T00:33:39;6.10;;;1.93;;
20525;SDS011;10421;49.142;9.232;2023-07-20T00:36:06;4.30;;;2.13;;
20525;SDS011;10421;49.142;9.232;2023-07-20T00:38:33;11.63;;;3.57;;
20525;SDS011;10421;49.142;9.232;2023-07-20T00:41:00;5.33;;;2.13;;
20525;SDS011;10421;49.142;9.232;2023-07-20T00:43:26;5.70;;;2.50;;
20525;SDS011;10421;49.142;9.232;2023-07-20T00:45:53;9.40;;;3.03;;
20525;SDS011;10421;49.142;9.232;2023-07-20T00:48:21;4.93;;;2.33;;
20525;SDS011;10421;49.142;9.232;2023-07-20T00:50:48;4.70;;;2.47;;
20525;SDS011;10421;49.142;9.232;2023-07-20T00:53:15;6.67;;;2.57;;
20525;SDS011;10421;49.142;9.232;2023-07-20T00:55:42;6.50;;;2.27;;
20525;SDS011;10421;49.142;9.232;2023-07-20T00:58:09;9.40;;;2.97;;
20525;SDS011;10421;49.142;9.232;2023-07-20T01:00:36;14.07;;;7.53;;
20525;SDS011;10421;49.142;9.232;2023-07-20T01:03:03;8.70;;;3.70;;
20525;SDS011;10421;49.142;9.232;2023-07-20T01:05:33;9.70;;;3.07;;
20525;SDS011;10421;49.142;9.232;2023-07-20T01:08:07;6.73;;;2.77;;
20525;SDS011;10421;49.142;9.232;2023-07-20T01:10:42;7.57;;;2.30;;
20525;SDS011;10421;49.142;9.232;2023-07-20T01:13:12;6.20;;;2.60;;
20525;SDS011;10421;49.142;9.232;2023-07-20T01:15:41;5.13;;;2.67;;
20525;SDS011;10421;49.142;9.232;2023-07-20T01:18:07;3.63;;;1.87;;
20525;SDS011;10421;49.142;9.232;2023-07-20T01:20:35;3.77;;;1.90;;
20525;SDS011;10421;49.142;9.232;2023-07-20T01:26:08;4.97;;;2.13;;
20525;SDS011;10421;49.142;9.232;2023-07-20T01:28:57;3.93;;;1.90;;
20525;SDS011;10421;49.142;9.232;2023-07-20T01:31:39;4.23;;;2.30;;
20525;SDS011;10421;49.142;9.232;2023-07-20T01:34:07;4.93;;;2.37;;
20525;SDS011;10421;49.142;9.232;2023-07-20T01:36:37;5.83;;;2.80;;
20525;SDS011;10421;49.142;9.232;2023-07-20T01:39:05;3.95;;;2.05;;
20525;SDS011;10421;49.142;9.232;2023-07-20T01:41:34;5.85;;;2.50;;
20525;SDS011;10421;49.142;9.232;2023-07-20T01:44:03;5.53;;;2.43;;
20525;SDS011;10421;49.142;9.232;2023-07-20T01:46:30;9.60;;;3.00;;
20525;SDS011;10421;49.142;9.232;2023-07-20T01:48:58;4.27;;;2.13;;
20525;SDS011;10421;49.142;9.232;2023-07-20T01:51:25;3.80;;;2.23;;
20525;SDS011;10421;49.142;9.232;2023-07-20T01:53:51;3.93;;;1.90;;
20525;SDS011;10421;49.142;9.232;2023-07-20T01:56:18;5.23;;;2.43;;
20525;SDS011;10421;49.142;9.232;2023-07-20T01:58:45;3.33;;;1.77;;
20525;SDS011;10421;49.142;9.232;2023-07-20T02:01:12;4.40;;;2.17;;
20525;SDS011;10421;49.142;9.232;2023-07-20T02:03:38;4.80;;;2.50;;
20525;SDS011;10421;49.142;9.232;2023-07-20T02:06:06;4.73;;;2.13;;
20525;SDS011;10421;49.142;9.232;2023-07-20T02:08:34;4.43;;;2.43;;
20525;SDS011;10421;49.142;9.232;2023-07-20T02:11:00;4.43;;;2.10;;
20525;SDS011;10421;49.142;9.232;2023-07-20T02:13:27;4.40;;;2.23;;
20525;SDS011;10421;49.142;9.232;2023-07-20T02:15:54;5.63;;;2.80;;
20525;SDS011;10421;49.142;9.232;2023-07-20T02:18:20;6.23;;;2.50;;
20525;SDS011;10421;49.142;9.232;2023-07-20T02:20:47;3.00;;;2.07;;
20525;SDS011;10421;49.142;9.232;2023-07-20T02:23:15;4.23;;;2.10;;
20525;SDS011;10421;49.142;9.232;2023-07-20T02:25:42;5.60;;;2.37;;
20525;SDS011;10421;49.142;9.232;2023-07-20T02:28:10;3.50;;;2.10;;
20525;SDS011;10421;49.142;9.232;2023-07-20T02:30:39;5.87;;;2.57;;
20525;SDS011;10421;49.142;9.232;2023-07-20T02:33:05;6.28;;;1.85;;
20525;SDS011;10421;49.142;9.232;2023-07-20T02:35:32;9.73;;;3.30;;
20525;SDS011;10421;49.142;9.232;2023-07-20T02:37:59;4.63;;;2.05;;
20525;SDS011;10421;49.142;9.232;2023-07-20T02:40:27;5.57;;;2.22;;
20525;SDS011;10421;49.142;9.232;2023-07-20T02:42:54;6.13;;;2.50;;
20525;SDS011;10421;49.142;9.232;2023-07-20T02:45:21;5.40;;;2.60;;
20525;SDS011;10421;49.142;9.232;2023-07-20T02:47:47;4.10;;;2.17;;
20525;SDS011;10421;49.142;9.232;2023-07-20T02:50:14;5.17;;;2.27;;
20525;SDS011;10421;49.142;9.232;2023-07-20T02:52:41;5.47;;;2.15;;
20525;SDS011;10421;49.142;9.232;2023-07-20T02:55:08;3.30;;;2.03;;
20525;SDS011;10421;49.142;9.232;2023-07-20T02:57:36;6.70;;;2.97;;
20525;SDS011;10421;49.142;9.232;2023-07-20T03:00:03;4.30;;;1.90;;
20525;SDS011;10421;49.142;9.232;2023-07-20T03:02:32;3.10;;;1.83;;
20525;SDS011;10421;49.142;9.232;2023-07-20T03:04:58;5.93;;;2.33;;
20525;SDS011;10421;49.142;9.232;2023-07-20T03:07:26;4.23;;;1.97;;
20525;SDS011;10421;49.142;9.232;2023-07-20T03:09:54;7.50;;;2.43;;
20525;SDS011;10421;49.142;9.232;2023-07-20T03:12:21;10.70;;;2.83;;
20525;SDS011;10421;49.142;9.232;2023-07-20T03:14:49;4.93;;;2.30;;
20525;SDS011;10421;49.142;9.232;2023-07-20T03:17:16;5.20;;;2.30;;
20525;SDS011;10421;49.142;9.232;2023-07-20T03:19:42;5.70;;;2.17;;
20525;SDS011;10421;49.142;9.232;2023-07-20T03:22:09;7.47;;;3.50;;
20525;SDS011;10421;49.142;9.232;2023-07-20T03:24:36;7.63;;;3.08;;
20525;SDS011;10421;49.142;9.232;2023-07-20T03:27:03;5.88;;;2.47;;
20525;SDS011;10421;49.142;9.232;2023-07-20T03:29:31;9.80;;;3.33;;
20525;SDS011;10421;49.142;9.232;2023-07-20T03:31:59;5.93;;;2.40;;
20525;SDS011;10421;49.142;9.232;2023-07-20T03:34:26;5.28;;;2.10;;
20525;SDS011;10421;49.142;9.232;2023-07-20T03:36:53;7.70;;;2.90;;
20525;SDS011;10421;49.142;9.232;2023-07-20T03:39:19;7.18;;;2.88;;
20525;SDS011;10421;49.142;9.232;2023-07-20T03:41:48;3.37;;;1.70;;
20525;SDS011;10421;49.142;9.232;2023-07-20T03:44:14;5.03;;;2.43;;
20525;SDS011;10421;49.142;9.232;2023-07-20T03:46:41;5.93;;;2.53;;
20525;SDS011;10421;49.142;9.232;2023-07-20T03:49:09;6.67;;;2.60;;
20525;SDS011;10421;49.142;9.232;2023-07-20T03:51:36;5.57;;;2.47;;
20525;SDS011;10421;49.142;9.232;2023-07-20T03:54:03;5.80;;;2.10;;
20525;SDS011;10421;49.142;9.232;2023-07-20T03:56:30;9.70;;;2.90;;
20525;SDS011;10421;49.142;9.232;2023-07-20T03:59:00;7.53;;;2.83;;
20525;SDS011;10421;49.142;9.232;2023-07-20T04:01:26;4.40;;;2.17;;
20525;SDS011;10421;49.142;9.232;2023-07-20T04:03:53;6.20;;;2.73;;
20525;SDS011;10421;49.142;9.232;2023-07-20T04:06:22;9.40;;;2.60;;
20525;SDS011;10421;49.142;9.232;2023-07-20T04:08:48;8.03;;;2.30;;
20525;SDS011;10421;49.142;9.232;2023-07-20T04:11:15;6.20;;;2.50;;
20525;SDS011;10421;49.142;9.232;2023-07-20T04:13:42;6.63;;;2.40;;
20525;SDS011;10421;49.142;9.232;2023-07-20T04:16:09;5.27;;;2.20;;
20525;SDS011;10421;49.142;9.232;2023-07-20T04:18:36;6.40;;;2.25;;
20525;SDS011;10421;49.142;9.232;2023-07-20T04:21:02;6.60;;;2.60;;
20525;SDS011;10421;49.142;9.232;2023-07-20T04:23:30;4.50;;;2.20;;
20525;SDS011;10421;49.142;9.232;2023-07-20T04:25:57;7.07;;;2.73;;
20525;SDS011;10421;49.142;9.232;2023-07-20T04:28:24;7.20;;;3.00;;
20525;SDS011;10421;49.142;9.232;2023-07-20T04:30:50;5.30;;;2.20;;
20525;SDS011;10421;49.142;9.232;2023-07-20T04:33:18;5.73;;;2.03;;
20525;SDS011;10421;49.142;9.232;2023-07-20T04:35:46;4.77;;;1.97;;
20525;SDS011;10421;49.142;9.232;2023-07-20T04:38:14;5.30;;;2.40;;
20525;SDS011;10421;49.142;9.232;2023-07-20T04:40:43;6.10;;;2.30;;
20525;SDS011;10421;49.142;9.232;2023-07-20T04:43:11;8.82;;;3.10;;
20525;SDS011;10421;49.142;9.232;2023-07-20T04:45:37;8.73;;;2.50;;
20525;SDS011;10421;49.142;9.232;2023-07-20T04:48:06;5.20;;;2.40;;
20525;SDS011;10421;49.142;9.232;2023-07-20T04:50:35;5.95;;;2.55;;
20525;SDS011;10421;49.142;9.232;2023-07-20T04:53:02;10.20;;;3.33;;
20525;SDS011;10421;49.142;9.232;2023-07-20T04:55:29;4.00;;;2.40;;
20525;SDS011;10421;49.142;9.232;2023-07-20T04:58:00;7.30;;;2.73;;
20525;SDS011;10421;49.142;9.232;2023-07-20T05:00:26;8.57;;;2.80;;
20525;SDS011;10421;49.142;9.232;2023-07-20T05:02:53;10.63;;;3.53;;
20525;SDS011;10421;49.142;9.232;2023-07-20T05:05:20;6.33;;;2.33;;
20525;SDS011;10421;49.142;9.232;2023-07-20T05:07:46;11.33;;;3.30;;
20525;SDS011;10421;49.142;9.232;2023-07-20T05:10:13;8.87;;;2.77;;
20525;SDS011;10421;49.142;9.232;2023-07-20T05:12:40;7.33;;;2.67;;
20525;SDS011;10421;49.142;9.232;2023-07-20T05:15:09;5.30;;;2.30;;
20525;SDS011;10421;49.142;9.232;2023-07-20T05:17:36;9.60;;;3.20;;
20525;SDS011;10421;49.142;9.232;2023-07-20T05:20:03;11.88;;;3.45;;
20525;SDS011;10421;49.142;9.232;2023-07-20T05:22:30;16.27;;;4.23;;
20525;SDS011;10421;49.142;9.232;2023-07-20T05:24:57;11.05;;;3.65;;
20525;SDS011;10421;49.142;9.232;2023-07-20T05:27:24;12.23;;;3.83;;
20525;SDS011;10421;49.142;9.232;2023-07-20T05:29:51;16.17;;;4.43;;
20525;SDS011;10421;49.142;9.232;2023-07-20T05:32:19;15.47;;;4.27;;
20525;SDS011;10421;49.142;9.232;2023-07-20T05:34:45;12.10;;;3.77;;
20525;SDS011;10421;49.142;9.232;2023-07-20T05:37:12;16.17;;;4.80;;
20525;SDS011;10421;49.142;9.232;2023-07-20T05:39:39;12.30;;;3.90;;
20525;SDS011;10421;49.142;9.232;2023-07-20T05:42:06;16.67;;;4.73;;
20525;SDS011;10421;49.142;9.232;2023-07-20T05:44:33;28.30;;;6.20;;
20525;SDS011;10421;49.142;9.232;2023-07-20T05:46:59;26.07;;;6.30;;
20525;SDS011;10421;49.142;9.232;2023-07-20T05:49:29;26.83;;;6.83;;
20525;SDS011;10421;49.142;9.232;2023-07-20T05:51:56;26.73;;;6.43;;
20525;SDS011;10421;49.142;9.232;2023-07-20T05:54:23;20.70;;;5.07;;
20525;SDS011;10421;49.142;9.232;2023-07-20T05:56:51;14.73;;;4.18;;
20525;SDS011;10421;49.142;9.232;2023-07-20T05:59:18;18.03;;;5.17;;
20525;SDS011;10421;49.142;9.232;2023-07-20T06:01:45;17.33;;;5.10;;
20525;SDS011;10421;49.142;9.232;2023-07-20T06:04:13;16.37;;;5.10;;
20525;SDS011;10421;49.142;9.232;2023-07-20T06:06:42;15.90;;;4.93;;
20525;SDS011;10421;49.142;9.232;2023-07-20T06:09:08;10.33;;;3.90;;
20525;SDS011;10421;49.142;9.232;2023-07-20T06:11:37;18.60;;;5.10;;
20525;SDS011;10421;49.142;9.232;2023-07-20T06:14:03;15.53;;;4.63;;
20525;SDS011;10421;49.142;9.232;2023-07-20T06:16:30;13.40;;;4.20;;
20525;SDS011;10421;49.142;9.232;2023-07-20T06:18:58;18.80;;;5.40;;
20525;SDS011;10421;49.142;9.232;2023-07-20T06:21:25;17.65;;;5.32;;
20525;SDS011;10421;49.142;9.232;2023-07-20T06:23:53;13.63;;;4.33;;
20525;SDS011;10421;49.142;9.232;2023-07-20T06:26:20;15.07;;;4.33;;
20525;SDS011;10421;49.142;9.232;2023-07-20T06:28:47;14.40;;;4.60;;
20525;SDS011;10421;49.142;9.232;2023-07-20T06:31:14;17.63;;;4.77;;
20525;SDS011;10421;49.142;9.232;2023-07-20T06:33:40;10.80;;;3.60;;
20525;SDS011;10421;49.142;9.232;2023-07-20T06:36:07;20.63;;;6.37;;
20525;SDS011;10421;49.142;9.232;2023-07-20T06:38:34;13.47;;;4.90;;
20525;SDS011;10421;49.142;9.232;2023-07-20T06:41:02;24.00;;;6.97;;
20525;SDS011;10421;49.142;9.232;2023-07-20T06:43:29;14.97;;;4.57;;
20525;SDS011;10421;49.142;9.232;2023-07-20T06:45:55;22.13;;;6.37;;
20525;SDS011;10421;49.142;9.232;2023-07-20T06:48:22;20.90;;;5.60;;
20525;SDS011;10421;49.142;9.232;2023-07-20T06:50:49;13.30;;;4.27;;
20525;SDS011;10421;49.142;9.232;2023-07-20T06:53:15;21.57;;;5.77;;
20525;SDS011;10421;49.142;9.232;2023-07-20T06:55:43;13.93;;;4.17;;
20525;SDS011;10421;49.142;9.232;2023-07-20T06:58:11;16.00;;;4.43;;
20525;SDS011;10421;49.142;9.232;2023-07-20T07:00:38;19.10;;;5.40;;
20525;SDS011;10421;49.142;9.232;2023-07-20T07:03:04;18.63;;;5.70;;
20525;SDS011;10421;49.142;9.232;2023-07-20T07:05:34;20.60;;;5.87;;
20525;SDS011;10421;49.142;9.232;2023-07-20T07:08:02;20.83;;;5.23;;
20525;SDS011;10421;49.142;9.232;2023-07-20T07:10:29;13.97;;;4.20;;
20525;SDS011;10421;49.142;9.232;2023-07-20T07:12:55;14.63;;;4.57;;
20525;SDS011;10421;49.142;9.232;2023-07-20T07:15:24;23.27;;;5.80;;
20525;SDS011;10421;49.142;9.232;2023-07-20T07:17:51;10.25;;;3.08;;
20525;SDS011;10421;49.142;9.232;2023-07-20T07:20:18;11.63;;;3.57;;
20525;SDS011;10421;49.142;9.232;2023-07-20T07:22:45;11.77;;;3.58;;
20525;SDS011;10421;49.142;9.232;2023-07-20T07:25:12;19.93;;;5.60;;
20525;SDS011;10421;49.142;9.232;2023-07-20T07:27:39;29.03;;;7.50;;
20525;SDS011;10421;49.142;9.232;2023-07-20T07:30:06;15.27;;;4.43;;
20525;SDS011;10421;49.142;9.232;2023-07-20T07:32:35;19.73;;;5.90;;
20525;SDS011;10421;49.142;9.232;2023-07-20T07:35:01;13.20;;;4.07;;
20525;SDS011;10421;49.142;9.232;2023-07-20T07:37:29;16.50;;;4.53;;
20525;SDS011;10421;49.142;9.232;2023-07-20T07:39:56;15.30;;;4.10;;
20525;SDS011;10421;49.142;9.232;2023-07-20T07:42:23;18.90;;;5.80;;
20525;SDS011;10421;49.142;9.232;2023-07-20T07:44:49;16.40;;;4.67;;
20525;SDS011;10421;49.142;9.232;2023-07-20T07:47:16;22.83;;;6.87;;
20525;SDS011;10421;49.142;9.232;2023-07-20T07:49:44;17.70;;;5.20;;
20525;SDS011;10421;49.142;9.232;2023-07-20T07:52:11;16.10;;;5.00;;
20525;SDS011;10421;49.142;9.232;2023-07-20T07:54:39;15.60;;;5.00;;
20525;SDS011;10421;49.142;9.232;2023-07-20T07:57:06;26.37;;;7.27;;
20525;SDS011;10421;49.142;9.232;2023-07-20T07:59:32;25.10;;;7.30;;
20525;SDS011;10421;49.142;9.232;2023-07-20T08:02:01;29.60;;;7.40;;
20525;SDS011;10421;49.142;9.232;2023-07-20T08:04:28;21.43;;;6.47;;
20525;SDS011;10421;49.142;9.232;2023-07-20T08:06:57;21.77;;;6.40;;
20525;SDS011;10421;49.142;9.232;2023-07-20T08:09:24;16.83;;;5.00;;
20525;SDS011;10421;49.142;9.232;2023-07-20T08:11:51;17.50;;;5.13;;
20525;SDS011;10421;49.142;9.232;2023-07-20T08:14:18;15.23;;;4.90;;
20525;SDS011;10421;49.142;9.232;2023-07-20T08:16:45;21.33;;;6.40;;
20525;SDS011;10421;49.142;9.232;2023-07-20T08:19:12;21.03;;;6.40;;
20525;SDS011;10421;49.142;9.232;2023-07-20T08:21:39;18.90;;;5.37;;
20525;SDS011;10421;49.142;9.232;2023-07-20T08:24:07;12.73;;;4.23;;
20525;SDS011;10421;49.142;9.232;2023-07-20T08:26:34;13.80;;;4.80;;
20525;SDS011;10421;49.142;9.232;2023-07-20T08:29:01;19.67;;;5.63;;
20525;SDS011;10421;49.142;9.232;2023-07-20T08:31:28;17.90;;;5.70;;
20525;SDS011;10421;49.142;9.232;2023-07-20T08:33:54;12.73;;;4.33;;
20525;SDS011;10421;49.142;9.232;2023-07-20T08:36:22;17.30;;;5.47;;
20525;SDS011;10421;49.142;9.232;2023-07-20T08:38:48;18.23;;;5.03;;
20525;SDS011;10421;49.142;9.232;2023-07-20T08:41:17;14.13;;;4.57;;
20525;SDS011;10421;49.142;9.232;2023-07-20T08:43:45;18.17;;;4.90;;
20525;SDS011;10421;49.142;9.232;2023-07-20T08:46:13;20.20;;;6.10;;
20525;SDS011;10421;49.142;9.232;2023-07-20T08:48:42;15.60;;;4.80;;
20525;SDS011;10421;49.142;9.232;2023-07-20T08:51:10;17.70;;;5.43;;
20525;SDS011;10421;49.142;9.232;2023-07-20T08:53:38;17.40;;;4.30;;
20525;SDS011;10421;49.142;9.232;2023-07-20T08:56:05;21.93;;;6.40;;
20525;SDS011;10421;49.142;9.232;2023-07-20T08:58:37;18.93;;;6.10;;
20525;SDS011;10421;49.142;9.232;2023-07-20T09:01:05;25.87;;;7.40;;
20525;SDS011;10421;49.142;9.232;2023-07-20T09:03:32;21.47;;;6.20;;
20525;SDS011;10421;49.142;9.232;2023-07-20T09:05:59;13.70;;;4.80;;
20525;SDS011;10421;49.142;9.232;2023-07-20T09:08:26;14.83;;;5.20;;
20525;SDS011;10421;49.142;9.232;2023-07-20T09:10:53;15.87;;;5.17;;
20525;SDS011;10421;49.142;9.232;2023-07-20T09:13:20;13.17;;;4.73;;
20525;SDS011;10421;49.142;9.232;2023-07-20T09:15:48;13.97;;;5.07;;
20525;SDS011;10421;49.142;9.232;2023-07-20T09:18:23;12.80;;;4.27;;
20525;SDS011;10421;49.142;9.232;2023-07-20T09:20:51;17.33;;;5.13;;
20525;SDS011;10421;49.142;9.232;2023-07-20T09:23:17;20.97;;;6.37;;
20525;SDS011;10421;49.142;9.232;2023-07-20T09:25:44;12.23;;;4.57;;
20525;SDS011;10421;49.142;9.232;2023-07-20T09:28:17;18.77;;;6.40;;
20525;SDS011;10421;49.142;9.232;2023-07-20T09:30:44;15.43;;;5.23;;
20525;SDS011;10421;49.142;9.232;2023-07-20T09:33:19;18.80;;;6.30;;
20525;SDS011;10421;49.142;9.232;2023-07-20T09:35:47;16.07;;;4.77;;
20525;SDS011;10421;49.142;9.232;2023-07-20T09:38:14;22.77;;;6.65;;
20525;SDS011;10421;49.142;9.232;2023-07-20T09:40:42;12.40;;;4.20;;
20525;SDS011;10421;49.142;9.232;2023-07-20T09:43:09;11.57;;;3.83;;
20525;SDS011;10421;49.142;9.232;2023-07-20T09:45:39;13.43;;;4.43;;
20525;SDS011;10421;49.142;9.232;2023-07-20T09:48:07;21.53;;;6.97;;
20525;SDS011;10421;49.142;9.232;2023-07-20T09:50:40;20.77;;;6.50;;
20525;SDS011;10421;49.142;9.232;2023-07-20T09:53:09;9.80;;;3.50;;
20525;SDS011;10421;49.142;9.232;2023-07-20T09:55:39;12.20;;;4.13;;
20525;SDS011;10421;49.142;9.232;2023-07-20T09:58:08;19.93;;;6.13;;
20525;SDS011;10421;49.142;9.232;2023-07-20T10:00:36;14.30;;;4.50;;
20525;SDS011;10421;49.142;9.232;2023-07-20T10:03:03;15.87;;;4.70;;
20525;SDS011;10421;49.142;9.232;2023-07-20T10:05:31;12.80;;;4.23;;
20525;SDS011;10421;49.142;9.232;2023-07-20T10:08:01;11.50;;;3.90;;
20525;SDS011;10421;49.142;9.232;2023-07-20T10:10:29;10.93;;;3.80;;
20525;SDS011;10421;49.142;9.232;2023-07-20T10:12:58;14.50;;;4.73;;
20525;SDS011;10421;49.142;9.232;2023-07-20T10:15:28;14.30;;;4.13;;
20525;SDS011;10421;49.142;9.232;2023-07-20T10:17:59;16.23;;;5.00;;
20525;SDS011;10421;49.142;9.232;2023-07-20T10:20:33;15.70;;;5.00;;
20525;SDS011;10421;49.142;9.232;2023-07-20T10:23:04;13.70;;;4.57;;
20525;SDS011;10421;49.142;9.232;2023-07-20T10:25:31;14.47;;;4.37;;
20525;SDS011;10421;49.142;9.232;2023-07-20T10:28:02;13.10;;;4.37;;
20525;SDS011;10421;49.142;9.232;2023-07-20T10:30:30;14.00;;;4.57;;
20525;SDS011;10421;49.142;9.232;2023-07-20T10:32:57;13.90;;;4.73;;
20525;SDS011;10421;49.142;9.232;2023-07-20T10:35:28;8.23;;;2.97;;
20525;SDS011;10421;49.142;9.232;2023-07-20T10:37:55;11.80;;;3.97;;
20525;SDS011;10421;49.142;9.232;2023-07-20T10:40:28;12.00;;;3.93;;
20525;SDS011;10421;49.142;9.232;2023-07-20T10:42:58;16.37;;;4.80;;
20525;SDS011;10421;49.142;9.232;2023-07-20T10:45:33;14.25;;;4.43;;
20525;SDS011;10421;49.142;9.232;2023-07-20T10:48:05;13.60;;;4.03;;
20525;SDS011;10421;49.142;9.232;2023-07-20T10:50:38;10.33;;;3.67;;
20525;SDS011;10421;49.142;9.232;2023-07-20T10:53:15;13.48;;;4.53;;
20525;SDS011;10421;49.142;9.232;2023-07-20T10:55:45;13.27;;;4.83;;
20525;SDS011;10421;49.142;9.232;2023-07-20T10:58:15;9.90;;;3.57;;
20525;SDS011;10421;49.142;9.232;2023-07-20T11:00:58;11.07;;;3.63;;
20525;SDS011;10421;49.142;9.232;2023-07-20T11:03:28;6.23;;;2.63;;
20525;SDS011;10421;49.142;9.232;2023-07-20T11:05:56;6.80;;;2.80;;
20525;SDS011;10421;49.142;9.232;2023-07-20T11:08:37;11.73;;;4.17;;
20525;SDS011;10421;49.142;9.232;2023-07-20T11:11:23;9.10;;;3.77;;
20525;SDS011;10421;49.142;9.232;2023-07-20T11:13:54;10.80;;;4.37;;
20525;SDS011;10421;49.142;9.232;2023-07-20T11:16:31;7.60;;;2.90;;
20525;SDS011;10421;49.142;9.232;2023-07-20T11:19:00;7.60;;;2.67;;
20525;SDS011;10421;49.142;9.232;2023-07-20T11:21:26;2.93;;;1.50;;
20525;SDS011;10421;49.142;9.232;2023-07-20T11:23:53;6.20;;;2.70;;
20525;SDS011;10421;49.142;9.232;2023-07-20T11:26:23;5.80;;;2.73;;
20525;SDS011;10421;49.142;9.232;2023-07-20T11:28:50;6.10;;;2.50;;
20525;SDS011;10421;49.142;9.232;2023-07-20T11:31:17;6.17;;;2.73;;
20525;SDS011;10421;49.142;9.232;2023-07-20T11:33:44;4.97;;;2.70;;
20525;SDS011;10421;49.142;9.232;2023-07-20T11:36:11;5.30;;;2.10;;
20525;SDS011;10421;49.142;9.232;2023-07-20T11:38:39;5.13;;;2.53;;
20525;SDS011;10421;49.142;9.232;2023-07-20T11:41:07;5.13;;;2.13;;
20525;SDS011;10421;49.142;9.232;2023-07-20T11:43:37;4.77;;;2.13;;
20525;SDS011;10421;49.142;9.232;2023-07-20T11:46:05;7.43;;;2.83;;
20525;SDS011;10421;49.142;9.232;2023-07-20T11:48:32;6.73;;;2.87;;
20525;SDS011;10421;49.142;9.232;2023-07-20T11:50:59;4.80;;;2.10;;
20525;SDS011;10421;49.142;9.232;2023-07-20T11:53:25;3.90;;;2.03;;
20525;SDS011;10421;49.142;9.232;2023-07-20T11:55:52;3.40;;;1.77;;
20525;SDS011;10421;49.142;9.232;2023-07-20T11:58:20;5.00;;;2.03;;
20525;SDS011;10421;49.142;9.232;2023-07-20T12:00:48;6.47;;;2.33;;
20525;SDS011;10421;49.142;9.232;2023-07-20T12:03:15;6.43;;;2.43;;
20525;SDS011;10421;49.142;9.232;2023-07-20T12:05:41;7.00;;;2.70;;
20525;SDS011;10421;49.142;9.232;2023-07-20T12:08:08;3.40;;;1.80;;
20525;SDS011;10421;49.142;9.232;2023-07-20T12:10:38;5.80;;;2.27;;
20525;SDS011;10421;49.142;9.232;2023-07-20T12:13:09;3.60;;;2.00;;
20525;SDS011;10421;49.142;9.232;2023-07-20T12:15:37;12.37;;;2.87;;
20525;SDS011;10421;49.142;9.232;2023-07-20T12:18:05;6.80;;;2.27;;
20525;SDS011;10421;49.142;9.232;2023-07-20T12:20:33;3.30;;;1.70;;
20525;SDS011;10421;49.142;9.232;2023-07-20T12:23:02;5.13;;;2.23;;
20525;SDS011;10421;49.142;9.232;2023-07-20T12:25:34;3.57;;;1.80;;
20525;SDS011;10421;49.142;9.232;2023-07-20T12:28:04;4.20;;;2.00;;
20525;SDS011;10421;49.142;9.232;2023-07-20T12:30:34;10.90;;;2.53;;
20525;SDS011;10421;49.142;9.232;2023-07-20T12:33:01;5.65;;;2.05;;
20525;SDS011;10421;49.142;9.232;2023-07-20T12:35:30;3.43;;;1.63;;
20525;SDS011;10421;49.142;9.232;2023-07-20T12:37:57;1.93;;;1.40;;
20525;SDS011;10421;49.142;9.232;2023-07-20T12:40:24;3.37;;;1.77;;
20525;SDS011;10421;49.142;9.232;2023-07-20T12:42:51;4.53;;;1.67;;
20525;SDS011;10421;49.142;9.232;2023-07-20T12:45:18;5.20;;;2.30;;
20525;SDS011;10421;49.142;9.232;2023-07-20T12:47:44;4.85;;;1.67;;
20525;SDS011;10421;49.142;9.232;2023-07-20T12:50:11;5.83;;;2.20;;
20525;SDS011;10421;49.142;9.232;2023-07-20T12:52:39;7.57;;;2.33;;
20525;SDS011;10421;49.142;9.232;2023-07-20T12:55:07;6.60;;;2.13;;
20525;SDS011;10421;49.142;9.232;2023-07-20T12:57:35;5.20;;;2.17;;
20525;SDS011;10421;49.142;9.232;2023-07-20T13:00:03;6.13;;;2.00;;
20525;SDS011;10421;49.142;9.232;2023-07-20T13:02:31;7.70;;;2.67;;
20525;SDS011;10421;49.142;9.232;2023-07-20T13:04:58;5.23;;;2.07;;
20525;SDS011;10421;49.142;9.232;2023-07-20T13:07:31;3.10;;;1.63;;
20525;SDS011;10421;49.142;9.232;2023-07-20T13:10:01;5.87;;;2.10;;
20525;SDS011;10421;49.142;9.232;2023-07-20T13:12:29;5.53;;;2.10;;
20525;SDS011;10421;49.142;9.232;2023-07-20T13:14:58;5.00;;;1.90;;
20525;SDS011;10421;49.142;9.232;2023-07-20T13:17:25;7.67;;;2.03;;
20525;SDS011;10421;49.142;9.232;2023-07-20T13:19:52;6.30;;;1.90;;
20525;SDS011;10421;49.142;9.232;2023-07-20T13:22:19;5.30;;;2.03;;
20525;SDS011;10421;49.142;9.232;2023-07-20T13:24:46;7.50;;;1.90;;
20525;SDS011;10421;49.142;9.232;2023-07-20T13:27:15;11.10;;;3.60;;
20525;SDS011;10421;49.142;9.232;2023-07-20T13:29:42;7.00;;;2.50;;
20525;SDS011;10421;49.142;9.232;2023-07-20T13:32:09;5.27;;;2.10;;
20525;SDS011;10421;49.142;9.232;2023-07-20T13:34:36;7.17;;;2.40;;
20525;SDS011;10421;49.142;9.232;2023-07-20T13:37:03;9.03;;;2.87;;
20525;SDS011;10421;49.142;9.232;2023-07-20T13:39:30;6.67;;;2.27;;
20525;SDS011;10421;49.142;9.232;2023-07-20T13:41:57;6.97;;;2.85;;
20525;SDS011;10421;49.142;9.232;2023-07-20T13:44:27;6.63;;;2.20;;
20525;SDS011;10421;49.142;9.232;2023-07-20T13:46:56;7.87;;;2.70;;
20525;SDS011;10421;49.142;9.232;2023-07-20T13:49:23;3.20;;;1.83;;
20525;SDS011;10421;49.142;9.232;2023-07-20T13:51:50;8.47;;;2.73;;
20525;SDS011;10421;49.142;9.232;2023-07-20T13:54:17;10.43;;;2.90;;
20525;SDS011;10421;49.142;9.232;2023-07-20T13:56:44;3.00;;;1.50;;
20525;SDS011;10421;49.142;9.232;2023-07-20T13:59:10;6.03;;;2.27;;
20525;SDS011;10421;49.142;9.232;2023-07-20T14:01:38;6.30;;;3.13;;
20525;SDS011;10421;49.142;9.232;2023-07-20T14:04:05;7.95;;;3.03;;
20525;SDS011;10421;49.142;9.232;2023-07-20T14:06:33;11.10;;;3.55;;
20525;SDS011;10421;49.142;9.232;2023-07-20T14:08:59;8.00;;;2.47;;
20525;SDS011;10421;49.142;9.232;2023-07-20T14:11:27;9.87;;;3.10;;
20525;SDS011;10421;49.142;9.232;2023-07-20T14:13:53;7.70;;;2.80;;
20525;SDS011;10421;49.142;9.232;2023-07-20T14:16:20;8.70;;;2.70;;
20525;SDS011;10421;49.142;9.232;2023-07-20T14:18:49;10.80;;;3.67;;
20525;SDS011;10421;49.142;9.232;2023-07-20T14:21:16;8.17;;;2.93;;
20525;SDS011;10421;49.142;9.232;2023-07-20T14:23:44;6.10;;;2.60;;
20525;SDS011;10421;49.142;9.232;2023-07-20T14:26:11;7.93;;;2.90;;
20525;SDS011;10421;49.142;9.232;2023-07-20T14:28:38;5.80;;;2.50;;
20525;SDS011;10421;49.142;9.232;2023-07-20T14:31:05;4.20;;;2.13;;
20525;SDS011;10421;49.142;9.232;2023-07-20T14:33:31;4.50;;;2.20;;
20525;SDS011;10421;49.142;9.232;2023-07-20T14:36:00;4.20;;;2.20;;
20525;SDS011;10421;49.142;9.232;2023-07-20T14:38:27;6.53;;;3.47;;
20525;SDS011;10421;49.142;9.232;2023-07-20T14:40:54;7.47;;;4.40;;
20525;SDS011;10421;49.142;9.232;2023-07-20T14:43:21;6.10;;;3.23;;
20525;SDS011;10421;49.142;9.232;2023-07-20T14:45:47;6.50;;;2.37;;
20525;SDS011;10421;49.142;9.232;2023-07-20T14:48:14;5.70;;;2.13;;
20525;SDS011;10421;49.142;9.232;2023-07-20T14:50:41;4.90;;;2.10;;